Time;durP1;ratioP1;P1;durP2;ratioP2;P2;SDS_P1;SDS_P2;PMS_P1;PMS_P2;Temp;Humidity;BMP_temperature;BMP_pressure;BME280_temperature;BME280_humidity;BME280_pressure;Samples;Min_cycle;Max_cycle;Signal;HPM_P1;HPM_P2
2022/12/31 00:00:10;;;;;;;1.87;1.43;;;12.40;1.00;;;;;;5034044;28;20557;-66
2022/12/31 00:02:38;;;;;;;1.50;1.40;;;12.30;1.00;;;;;;5041799;28;20250;-66
2022/12/31 00:05:06;;;;;;;2.73;2.13;;;12.30;1.00;;;;;;5023829;28;20232;-66
2022/12/31 00:07:36;;;;;;;2.53;1.93;;;12.30;1.00;;;;;;5056195;28;20721;-67
2022/12/31 00:10:03;;;;;;;3.10;1.70;;;12.40;1.00;;;;;;5058062;28;20175;-67
2022/12/31 00:12:30;;;;;;;1.73;1.60;;;12.40;1.00;;;;;;5056303;28;20539;-67
2022/12/31 00:14:57;;;;;;;2.30;1.80;;;12.40;1.00;;;;;;5039595;28;20286;-67
2022/12/31 00:17:24;;;;;;;2.63;1.67;;;12.40;1.00;;;;;;5040611;28;20245;-67
2022/12/31 00:19:51;;;;;;;2.20;1.80;;;12.40;1.00;;;;;;5024375;28;20670;-67
2022/12/31 00:22:18;;;;;;;1.77;1.50;;;12.40;1.00;;;;;;5054181;28;20192;-67
2022/12/31 00:24:45;;;;;;;1.70;1.60;;;12.40;1.00;;;;;;5038579;28;20285;-67
2022/12/31 00:27:12;;;;;;;1.77;1.50;;;12.40;1.00;;;;;;5038196;28;20253;-66
2022/12/31 00:29:39;;;;;;;1.77;1.37;;;12.50;1.00;;;;;;5039405;28;20287;-65
2022/12/31 00:32:06;;;;;;;7.40;1.70;;;12.50;1.00;;;;;;5037686;28;20222;-66
2022/12/31 00:34:34;;;;;;;1.33;1.10;;;12.50;1.00;;;;;;5039214;28;20187;-66
2022/12/31 00:37:01;;;;;;;2.80;1.13;;;12.50;1.00;;;;;;5058878;28;20192;-66
2022/12/31 00:39:28;;;;;;;1.20;1.10;;;12.50;1.00;;;;;;5054728;28;20203;-66
2022/12/31 00:41:55;;;;;;;1.23;1.10;;;12.50;99.90;;;;;;5057996;28;20199;-67
2022/12/31 00:44:22;;;;;;;1.20;1.10;;;12.50;99.90;;;;;;5039496;28;20215;-67
2022/12/31 00:46:49;;;;;;;1.93;1.00;;;12.50;99.90;;;;;;5040427;28;20705;-67
2022/12/31 00:49:16;;;;;;;7.67;3.20;;;12.60;99.90;;;;;;5039306;28;20598;-67
2022/12/31 00:51:45;;;;;;;1.60;1.13;;;12.60;99.90;;;;;;5038396;28;20281;-67
2022/12/31 00:54:12;;;;;;;1.83;1.37;;;12.70;99.90;;;;;;5037820;28;20321;-67
2022/12/31 00:56:39;;;;;;;0.93;0.90;;;12.80;99.90;;;;;;5057910;28;20213;-69
2022/12/31 00:59:06;;;;;;;0.93;0.90;;;12.80;99.90;;;;;;5023678;28;20199;-67
2022/12/31 01:01:38;;;;;;;0.80;0.80;;;12.80;99.90;;;;;;5057179;28;20210;-70
2022/12/31 01:04:11;;;;;;;0.90;0.90;;;12.80;99.90;;;;;;5055723;28;20227;-67
2022/12/31 01:06:42;;;;;;;1.10;0.90;;;12.80;99.90;;;;;;5039555;28;20215;-67
2022/12/31 01:09:11;;;;;;;1.73;0.83;;;12.80;99.90;;;;;;5014129;28;20207;-67
2022/12/31 01:11:38;;;;;;;1.00;0.90;;;12.80;99.90;;;;;;5055615;28;20478;-66
2022/12/31 01:14:11;;;;;;;1.23;0.80;;;12.80;99.90;;;;;;5037577;28;20252;-67
2022/12/31 01:16:40;;;;;;;2.57;0.77;;;12.70;1.00;;;;;;5050147;28;20287;-69
2022/12/31 01:19:12;;;;;;;0.80;0.80;;;12.70;1.00;;;;;;5035518;28;20223;-67
2022/12/31 01:21:41;;;;;;;1.00;0.70;;;12.60;1.00;;;;;;5054840;28;20719;-66
2022/12/31 01:24:10;;;;;;;1.00;0.90;;;12.60;1.00;;;;;;5036779;28;20247;-66
2022/12/31 01:26:37;;;;;;;0.60;0.60;;;12.50;1.00;;;;;;5037533;28;20218;-67
2022/12/31 01:29:05;;;;;;;0.90;0.90;;;12.40;1.00;;;;;;5056877;28;20197;-67
2022/12/31 01:31:33;;;;;;;1.40;1.17;;;12.50;1.00;;;;;;5025342;28;20690;-66
2022/12/31 01:34:01;;;;;;;2.40;1.10;;;12.40;1.00;;;;;;5059031;28;20540;-68
2022/12/31 01:36:30;;;;;;;1.70;1.60;;;12.40;1.00;;;;;;5058088;28;20225;-68
2022/12/31 01:38:59;;;;;;;3.10;1.30;;;12.40;1.00;;;;;;5056217;28;20202;-67
2022/12/31 01:41:33;;;;;;;1.07;0.97;;;12.40;99.90;;;;;;5060220;28;20232;-67
2022/12/31 01:44:21;;;;;;;1.17;1.03;;;12.40;99.90;;;;;;5056961;28;20226;-67
2022/12/31 01:46:53;;;;;;;2.53;0.93;;;12.40;99.90;;;;;;5041022;28;20195;-67
2022/12/31 01:49:41;;;;;;;1.20;0.90;;;12.40;99.90;;;;;;5036739;28;20664;-67
2022/12/31 01:52:21;;;;;;;0.80;0.80;;;12.40;99.90;;;;;;5024514;28;20199;-68
2022/12/31 01:55:04;;;;;;;3.73;1.00;;;12.40;99.90;;;;;;5038051;28;20191;-67
2022/12/31 01:57:31;;;;;;;1.07;0.87;;;12.60;99.90;;;;;;5057688;28;20737;-67
2022/12/31 02:00:00;;;;;;;1.27;0.90;;;12.50;99.90;;;;;;5055878;28;20663;-67
2022/12/31 02:02:30;;;;;;;3.27;0.90;;;12.60;99.90;;;;;;5058391;28;20674;-67
2022/12/31 02:05:01;;;;;;;1.00;0.90;;;12.60;20.40;;;;;;5058889;28;20235;-67
2022/12/31 02:07:28;;;;;;;0.93;0.70;;;12.70;1.00;;;;;;5040761;28;20241;-68
2022/12/31 02:09:55;;;;;;;0.80;0.70;;;12.80;1.00;;;;;;5059831;28;20198;-69
2022/12/31 02:12:22;;;;;;;1.20;0.80;;;12.90;1.00;;;;;;5041107;28;20210;-67
2022/12/31 02:14:52;;;;;;;0.80;0.80;;;12.90;1.00;;;;;;5059853;28;20587;-74
2022/12/31 02:17:43;;;;;;;0.70;0.70;;;13.10;1.00;;;;;;5022702;28;20302;-67
2022/12/31 02:20:31;;;;;;;1.13;0.80;;;13.20;1.00;;;;;;5040472;28;20199;-66
2022/12/31 02:23:01;;;;;;;1.00;0.70;;;13.30;1.00;;;;;;5056194;28;20290;-66
2022/12/31 02:26:06;;;;;;;1.63;0.70;;;13.30;1.00;;;;;;5024675;28;20655;-66
2022/12/31 02:28:54;;;;;;;1.23;0.70;;;13.20;1.00;;;;;;5030068;28;20844;-66
2022/12/31 02:31:40;;;;;;;0.50;0.50;;;13.10;1.00;;;;;;5056618;28;20261;-66
2022/12/31 02:34:16;;;;;;;0.73;0.50;;;13.30;1.00;;;;;;5027210;28;20191;-67
2022/12/31 02:36:46;;;;;;;0.50;0.50;;;13.30;1.00;;;;;;5036450;28;20207;-67
2022/12/31 02:39:14;;;;;;;1.30;0.70;;;13.40;1.00;;;;;;5056110;28;20226;-67
2022/12/31 02:41:50;;;;;;;1.33;0.50;;;13.40;1.00;;;;;;5056599;28;20658;-67
2022/12/31 02:44:24;;;;;;;0.83;0.43;;;13.40;1.00;;;;;;5055538;28;20321;-67
2022/12/31 02:47:30;;;;;;;1.43;0.60;;;13.50;1.00;;;;;;5053565;28;20186;-66
2022/12/31 02:50:24;;;;;;;0.40;0.40;;;13.50;1.00;;;;;;5004013;28;20207;-66
2022/12/31 02:53:06;;;;;;;1.03;0.53;;;13.60;99.90;;;;;;5037719;28;20191;-67
2022/12/31 02:55:35;;;;;;;0.40;0.40;;;13.70;99.90;;;;;;5026769;28;20207;-67
2022/12/31 03:04:32;;;;;;;0.40;0.40;;;13.80;99.90;;;;;;5058617;28;20657;-67
2022/12/31 03:07:11;;;;;;;1.17;0.45;;;13.90;99.90;;;;;;5056468;28;20654;-67
2022/12/31 03:09:38;;;;;;;0.50;0.50;;;14.10;99.90;;;;;;5057822;28;20570;-67
2022/12/31 03:14:54;;;;;;;0.55;0.47;;;14.20;99.90;;;;;;5035676;28;20235;-67
2022/12/31 03:17:21;;;;;;;0.85;0.52;;;14.10;99.90;;;;;;5039452;28;20736;-64
2022/12/31 03:22:36;;;;;;;0.50;0.50;;;14.20;95.40;;;;;;5057820;28;20274;-64
2022/12/31 03:27:57;;;;;;;0.68;0.50;;;14.20;85.30;;;;;;5057225;28;20666;-64
2022/12/31 03:30:25;;;;;;;0.47;0.40;;;14.30;84.50;;;;;;5055324;28;20471;-64
2022/12/31 03:32:55;;;;;;;0.63;0.40;;;14.30;78.20;;;;;;5056162;28;20294;-64
2022/12/31 03:35:24;;;;;;;2.53;0.47;;;14.20;80.90;;;;;;5039465;28;20657;-64
2022/12/31 03:37:52;;;;;;;0.47;0.47;;;14.30;69.20;;;;;;5055100;28;20191;-64
2022/12/31 03:40:20;;;;;;;0.73;0.70;;;14.40;50.10;;;;;;5020675;28;20200;-65
2022/12/31 03:42:48;;;;;;;1.95;0.60;;;14.50;36.30;;;;;;5058397;28;20191;-64
2022/12/31 03:45:15;;;;;;;1.27;0.93;;;14.40;41.60;;;;;;5055020;28;20252;-65
2022/12/31 03:47:42;;;;;;;0.80;0.80;;;14.40;43.10;;;;;;5036890;28;20179;-63
2022/12/31 03:50:11;;;;;;;1.10;1.00;;;14.40;53.30;;;;;;5054192;28;20187;-65
2022/12/31 03:52:38;;;;;;;0.80;0.70;;;14.40;94.30;;;;;;5056266;28;20199;-64
2022/12/31 03:55:06;;;;;;;1.90;1.00;;;14.40;93.40;;;;;;5057680;28;20209;-64
2022/12/31 03:57:33;;;;;;;1.02;0.95;;;14.30;99.90;;;;;;5055824;28;20197;-64
2022/12/31 04:00:01;;;;;;;2.50;0.90;;;14.30;99.90;;;;;;5053752;28;20741;-63
2022/12/31 04:02:30;;;;;;;1.35;1.00;;;14.20;99.90;;;;;;5055444;28;20237;-65
2022/12/31 04:04:57;;;;;;;1.40;1.30;;;14.10;99.90;;;;;;5053676;28;20231;-66
2022/12/31 04:07:24;;;;;;;1.30;0.90;;;14.10;99.90;;;;;;5056005;28;20603;-65
2022/12/31 04:09:51;;;;;;;5.28;3.35;;;14.10;99.90;;;;;;5040018;28;20238;-64
2022/12/31 04:12:18;;;;;;;0.90;0.80;;;14.00;99.90;;;;;;5056967;28;20239;-63
2022/12/31 04:14:45;;;;;;;1.65;0.93;;;14.00;99.90;;;;;;5038232;28;20218;-64
2022/12/31 04:17:12;;;;;;;1.67;0.82;;;14.00;99.90;;;;;;5038385;28;20663;-64
2022/12/31 04:19:39;;;;;;;1.80;0.73;;;14.00;99.90;;;;;;5055828;28;20199;-64
2022/12/31 04:22:06;;;;;;;1.33;1.23;;;14.00;99.90;;;;;;5053924;28;20249;-63
2022/12/31 04:24:33;;;;;;;3.17;2.03;;;14.00;99.90;;;;;;5056479;28;20203;-63
2022/12/31 04:27:00;;;;;;;1.13;1.02;;;14.00;99.90;;;;;;5038917;28;20240;-64
2022/12/31 04:29:34;;;;;;;1.48;1.17;;;14.10;99.90;;;;;;5038011;28;20216;-63
2022/12/31 04:32:03;;;;;;;1.85;1.00;;;14.10;99.90;;;;;;5054132;28;20629;-63
2022/12/31 04:34:30;;;;;;;1.00;0.93;;;14.20;99.90;;;;;;5056834;28;20652;-63
2022/12/31 04:36:57;;;;;;;1.70;1.25;;;14.30;99.90;;;;;;5038815;28;20614;-64
2022/12/31 04:39:24;;;;;;;1.33;1.00;;;14.50;99.90;;;;;;5055966;28;20258;-64
2022/12/31 04:41:51;;;;;;;2.78;1.70;;;14.40;99.90;;;;;;5054669;28;20274;-65
2022/12/31 04:44:19;;;;;;;5.57;2.70;;;14.40;99.40;;;;;;5036558;28;20207;-67
2022/12/31 04:46:46;;;;;;;2.60;0.85;;;14.40;93.20;;;;;;5037812;28;20698;-65
2022/12/31 04:49:13;;;;;;;2.60;1.27;;;14.50;65.70;;;;;;5057041;28;20196;-64
2022/12/31 04:51:40;;;;;;;4.65;2.17;;;14.50;54.00;;;;;;5053203;28;20191;-63
2022/12/31 04:54:07;;;;;;;9.05;3.88;;;14.60;38.10;;;;;;5054481;28;20195;-63
2022/12/31 04:56:35;;;;;;;1.42;1.30;;;14.50;34.60;;;;;;5036210;28;20294;-63
2022/12/31 04:59:06;;;;;;;0.80;0.80;;;14.80;9.50;;;;;;5056160;28;20191;-64
2022/12/31 05:01:33;;;;;;;1.33;1.10;;;14.80;1.00;;;;;;5036151;28;20194;-64
2022/12/31 05:04:00;;;;;;;1.75;1.00;;;14.70;11.60;;;;;;5039575;28;20747;-64
2022/12/31 05:06:27;;;;;;;1.80;0.65;;;14.80;18.60;;;;;;5053637;28;21843;-63
2022/12/31 05:08:54;;;;;;;1.40;0.80;;;14.60;45.30;;;;;;5054511;28;20547;-64
2022/12/31 05:11:21;;;;;;;1.55;0.50;;;14.60;82.10;;;;;;5035616;28;20198;-63
2022/12/31 05:13:48;;;;;;;0.70;0.60;;;14.50;99.90;;;;;;5038193;28;20632;-63
2022/12/31 05:16:15;;;;;;;0.73;0.73;;;14.40;99.90;;;;;;5021558;28;20213;-64
2022/12/31 05:18:42;;;;;;;0.65;0.52;;;14.30;99.90;;;;;;5039729;28;20651;-63
2022/12/31 05:21:17;;;;;;;3.70;0.95;;;14.30;99.90;;;;;;5038837;28;20233;-63
2022/12/31 05:23:44;;;;;;;0.65;0.65;;;14.40;99.90;;;;;;5036209;28;20353;-63
2022/12/31 05:26:11;;;;;;;1.42;0.60;;;14.30;99.90;;;;;;5055730;28;20273;-62
2022/12/31 05:28:38;;;;;;;1.52;1.10;;;14.50;99.90;;;;;;5054568;28;20371;-62
2022/12/31 05:31:05;;;;;;;2.75;2.50;;;14.50;95.20;;;;;;5057093;28;20219;-63
2022/12/31 05:33:32;;;;;;;0.90;0.80;;;14.60;60.90;;;;;;5055113;28;20705;-63
2022/12/31 05:35:59;;;;;;;2.45;1.75;;;14.60;41.60;;;;;;5038044;28;20277;-64
2022/12/31 05:38:26;;;;;;;0.73;0.73;;;14.80;10.50;;;;;;5052920;28;20199;-65
2022/12/31 05:41:05;;;;;;;1.30;0.80;;;14.90;1.00;;;;;;5034334;28;20241;-65
2022/12/31 05:43:32;;;;;;;0.50;0.50;;;15.00;1.00;;;;;;5036489;28;20194;-64
2022/12/31 05:46:03;;;;;;;1.02;0.68;;;15.10;1.00;;;;;;5056960;28;20218;-63
2022/12/31 05:48:31;;;;;;;0.75;0.60;;;15.20;1.00;;;;;;5034761;28;20192;-64
2022/12/31 05:50:58;;;;;;;0.60;0.60;;;15.20;1.00;;;;;;5054494;28;20223;-65
2022/12/31 05:53:25;;;;;;;0.60;0.60;;;15.30;1.00;;;;;;5037052;28;20204;-64
2022/12/31 05:55:52;;;;;;;1.27;0.85;;;15.30;1.00;;;;;;5055277;28;20623;-65
2022/12/31 05:58:19;;;;;;;0.95;0.50;;;15.40;1.00;;;;;;5055581;28;20252;-63
2022/12/31 06:00:46;;;;;;;1.17;0.80;;;15.50;1.00;;;;;;5055316;28;20211;-64
2022/12/31 06:03:13;;;;;;;1.30;0.60;;;15.60;1.00;;;;;;5054584;28;20200;-63
2022/12/31 06:05:41;;;;;;;0.95;0.70;;;15.60;1.00;;;;;;5055269;28;20691;-63
2022/12/31 06:08:10;;;;;;;4.13;0.82;;;15.60;1.00;;;;;;5056040;28;20658;-63
2022/12/31 06:10:40;;;;;;;1.45;0.80;;;15.80;1.00;;;;;;5055603;28;20210;-63
2022/12/31 06:13:07;;;;;;;0.98;0.75;;;15.90;1.00;;;;;;5038422;28;20289;-64
2022/12/31 06:15:39;;;;;;;0.88;0.80;;;15.90;1.00;;;;;;5015930;28;20203;-63
2022/12/31 06:18:07;;;;;;;2.00;0.70;;;16.00;1.00;;;;;;5058206;28;20222;-64
2022/12/31 06:20:37;;;;;;;0.82;0.50;;;16.10;1.00;;;;;;5030110;28;20199;-65
2022/12/31 06:23:04;;;;;;;1.00;0.60;;;16.00;1.00;;;;;;5055521;28;20216;-64
2022/12/31 06:25:33;;;;;;;2.63;0.70;;;16.20;1.00;;;;;;5057150;28;20744;-64
2022/12/31 06:28:00;;;;;;;4.40;0.95;;;16.30;1.00;;;;;;5040114;28;20199;-64
2022/12/31 06:30:27;;;;;;;1.10;0.63;;;16.30;1.00;;;;;;5058397;28;20266;-68
2022/12/31 06:32:54;;;;;;;0.57;0.43;;;16.50;1.00;;;;;;5056551;28;20732;-62
2022/12/31 06:35:22;;;;;;;2.50;0.68;;;16.50;1.00;;;;;;5056970;28;20195;-62
2022/12/31 06:37:51;;;;;;;2.55;0.73;;;16.50;1.00;;;;;;5038438;28;20563;-63
2022/12/31 06:40:18;;;;;;;1.27;0.70;;;16.50;1.00;;;;;;5057272;28;20935;-62
2022/12/31 06:42:45;;;;;;;1.52;0.60;;;16.40;1.00;;;;;;5056178;28;20577;-64
2022/12/31 06:45:12;;;;;;;2.13;0.70;;;16.50;1.00;;;;;;5038139;28;20585;-63
2022/12/31 06:47:39;;;;;;;1.77;0.85;;;16.50;1.00;;;;;;5038469;28;20342;-64
2022/12/31 06:50:06;;;;;;;2.47;0.68;;;16.60;1.00;;;;;;5038921;28;20651;-63
2022/12/31 06:52:33;;;;;;;1.20;0.60;;;16.70;1.00;;;;;;5038224;28;20517;-63
2022/12/31 06:55:00;;;;;;;1.85;0.75;;;16.70;1.00;;;;;;5055113;28;20206;-64
2022/12/31 06:57:28;;;;;;;0.85;0.65;;;16.60;1.00;;;;;;5059259;28;20560;-63
2022/12/31 06:59:55;;;;;;;2.60;0.63;;;16.60;1.00;;;;;;5056437;28;20195;-64
2022/12/31 07:02:39;;;;;;;1.48;1.00;;;16.60;1.00;;;;;;5055864;28;20706;-64
2022/12/31 07:05:08;;;;;;;2.10;0.70;;;16.70;1.00;;;;;;5055931;28;20238;-68
2022/12/31 07:08:13;;;;;;;0.95;0.70;;;16.70;1.00;;;;;;5058077;28;20348;-66
2022/12/31 07:11:12;;;;;;;1.50;0.90;;;16.60;1.00;;;;;;5042381;28;20263;-64
2022/12/31 07:13:48;;;;;;;1.98;0.80;;;16.60;1.00;;;;;;5021422;28;20239;-64
2022/12/31 07:16:34;;;;;;;3.33;1.55;;;16.70;1.00;;;;;;5041076;28;20183;-64
2022/12/31 07:19:19;;;;;;;1.25;1.00;;;16.60;1.00;;;;;;5039010;28;20194;-64
2022/12/31 07:21:50;;;;;;;3.20;1.00;;;16.60;1.00;;;;;;5054778;28;20279;-64
2022/12/31 07:24:18;;;;;;;2.30;0.80;;;16.70;1.00;;;;;;5056984;28;20294;-65
2022/12/31 07:27:07;;;;;;;1.65;1.10;;;16.60;1.00;;;;;;5039172;28;20865;-66
2022/12/31 07:29:59;;;;;;;4.25;1.42;;;16.60;1.00;;;;;;5052589;28;20278;-66
2022/12/31 07:32:48;;;;;;;2.65;1.17;;;16.60;1.00;;;;;;5023067;28;20199;-65
2022/12/31 07:36:00;;;;;;;3.67;2.47;;;16.60;1.00;;;;;;5053586;28;20280;-65
2022/12/31 07:38:27;;;;;;;1.50;1.23;;;16.60;1.00;;;;;;5037337;28;20198;-65
2022/12/31 07:41:18;;;;;;;1.98;0.90;;;16.60;1.00;;;;;;5054924;28;20286;-65
2022/12/31 07:44:05;;;;;;;3.25;0.90;;;16.70;1.00;;;;;;5038765;28;20538;-65
2022/12/31 07:46:50;;;;;;;2.35;0.75;;;16.80;1.00;;;;;;5020469;28;20230;-65
2022/12/31 07:49:20;;;;;;;2.40;0.90;;;16.80;1.00;;;;;;5054116;28;20579;-65
2022/12/31 07:51:47;;;;;;;1.52;0.80;;;16.70;1.00;;;;;;5055627;28;20214;-66
2022/12/31 07:54:14;;;;;;;1.45;0.68;;;16.80;1.00;;;;;;5029939;28;20448;-66
2022/12/31 07:56:42;;;;;;;1.15;0.63;;;16.90;1.00;;;;;;5056105;28;20233;-66
2022/12/31 07:59:45;;;;;;;2.83;0.90;;;16.80;1.00;;;;;;5052620;28;20195;-66
2022/12/31 08:02:14;;;;;;;2.03;0.77;;;16.80;1.00;;;;;;5053415;28;20186;-65
2022/12/31 08:04:56;;;;;;;4.03;1.08;;;16.90;1.00;;;;;;5037697;28;20265;-63
2022/12/31 08:07:42;;;;;;;1.90;0.70;;;16.90;1.00;;;;;;5053680;28;20233;-64
2022/12/31 08:10:37;;;;;;;2.53;1.20;;;16.90;1.00;;;;;;5055963;28;20192;-64
2022/12/31 08:13:09;;;;;;;2.58;0.90;;;16.90;1.00;;;;;;5055010;28;20192;-66
2022/12/31 08:15:38;;;;;;;3.30;1.10;;;16.90;1.00;;;;;;5057984;28;20191;-63
2022/12/31 08:18:06;;;;;;;0.90;0.73;;;16.90;1.00;;;;;;5058120;28;20298;-64
2022/12/31 08:20:51;;;;;;;1.70;0.88;;;17.00;1.00;;;;;;5022271;28;20227;-66
2022/12/31 08:23:23;;;;;;;1.10;0.88;;;17.00;1.00;;;;;;5038596;28;20666;-65
2022/12/31 08:26:05;;;;;;;3.13;0.95;;;17.00;1.00;;;;;;5057246;28;20200;-64
2022/12/31 08:29:02;;;;;;;2.10;0.80;;;17.00;1.00;;;;;;5057418;28;20262;-64
2022/12/31 08:31:53;;;;;;;3.85;1.20;;;17.10;1.00;;;;;;5037908;28;20187;-65
2022/12/31 08:34:39;;;;;;;1.25;0.75;;;17.00;1.00;;;;;;5039222;28;20253;-65
2022/12/31 08:37:40;;;;;;;3.45;1.10;;;17.00;1.00;;;;;;5055891;28;20240;-64
2022/12/31 08:40:07;;;;;;;3.72;1.23;;;17.00;1.00;;;;;;5055860;28;20274;-63
2022/12/31 08:43:00;;;;;;;1.23;0.90;;;17.10;1.00;;;;;;5056429;28;20221;-63
2022/12/31 08:45:37;;;;;;;2.42;0.73;;;17.00;1.00;;;;;;5038684;28;20221;-63
2022/12/31 08:48:27;;;;;;;2.17;1.02;;;17.00;1.00;;;;;;5055583;28;20221;-64
2022/12/31 08:50:54;;;;;;;2.33;0.90;;;17.20;1.00;;;;;;5039296;28;20652;-65
2022/12/31 08:53:21;;;;;;;3.75;0.90;;;17.30;1.00;;;;;;5055513;28;20238;-64
2022/12/31 08:55:56;;;;;;;4.15;0.95;;;17.20;1.00;;;;;;5035464;28;20195;-65
2022/12/31 08:58:55;;;;;;;1.00;0.90;;;17.20;1.00;;;;;;5051707;28;20655;-65
2022/12/31 09:01:28;;;;;;;1.40;0.93;;;17.30;1.00;;;;;;5049392;28;20285;-65
2022/12/31 09:04:19;;;;;;;1.42;0.75;;;17.30;1.00;;;;;;5050847;28;20747;-65
2022/12/31 09:06:59;;;;;;;1.75;0.80;;;17.40;1.00;;;;;;5033823;28;20187;-67
2022/12/31 09:09:31;;;;;;;2.90;1.05;;;17.50;1.00;;;;;;5051997;28;20207;-66
2022/12/31 09:12:14;;;;;;;4.28;0.80;;;17.50;1.00;;;;;;5038099;28;20284;-65
2022/12/31 09:14:46;;;;;;;2.08;0.90;;;17.60;1.00;;;;;;5056467;28;20269;-65
2022/12/31 09:17:32;;;;;;;2.15;0.70;;;17.50;1.00;;;;;;5056964;28;20292;-65
2022/12/31 09:20:01;;;;;;;1.20;0.80;;;17.60;1.00;;;;;;5054355;28;20186;-65
2022/12/31 09:22:28;;;;;;;1.40;0.82;;;17.70;1.00;;;;;;5054857;28;20654;-66
2022/12/31 09:24:55;;;;;;;1.00;0.73;;;17.70;1.00;;;;;;5056071;28;20689;-66
2022/12/31 09:27:41;;;;;;;0.70;0.68;;;17.70;1.00;;;;;;5020693;28;20679;-66
2022/12/31 09:30:15;;;;;;;1.73;1.00;;;17.70;1.00;;;;;;5056752;28;20740;-65
2022/12/31 09:32:56;;;;;;;2.13;1.00;;;17.70;1.00;;;;;;5057334;28;20249;-65
2022/12/31 09:35:48;;;;;;;1.60;0.55;;;17.80;1.00;;;;;;5024275;28;20202;-66
2022/12/31 09:38:27;;;;;;;3.28;0.90;;;17.80;1.00;;;;;;5037483;28;20219;-66
2022/12/31 09:41:14;;;;;;;2.22;1.42;;;17.70;1.00;;;;;;5054293;28;20196;-66
2022/12/31 09:43:56;;;;;;;2.72;0.90;;;17.60;1.00;;;;;;5037838;28;20207;-66
2022/12/31 09:46:55;;;;;;;2.00;0.98;;;17.60;1.00;;;;;;5036226;28;20215;-66
2022/12/31 09:49:49;;;;;;;2.95;0.88;;;17.50;1.00;;;;;;5058294;28;20218;-66
2022/12/31 09:52:50;;;;;;;3.25;1.20;;;17.60;1.00;;;;;;5041135;28;20207;-66
2022/12/31 09:55:30;;;;;;;2.95;0.93;;;17.50;1.00;;;;;;5041295;28;20210;-66
2022/12/31 09:58:31;;;;;;;1.48;1.00;;;17.50;1.00;;;;;;5020277;28;20208;-67
2022/12/31 10:01:41;;;;;;;2.33;0.90;;;17.50;1.00;;;;;;5051819;28;20463;-66
2022/12/31 10:04:42;;;;;;;2.20;1.10;;;17.40;1.00;;;;;;5058432;28;20215;-66
2022/12/31 10:07:19;;;;;;;5.50;1.10;;;17.30;1.00;;;;;;5054334;28;20285;-66
2022/12/31 10:09:51;;;;;;;3.22;1.23;;;17.30;1.00;;;;;;5033574;28;20260;-66
2022/12/31 10:12:26;;;;;;;1.00;0.90;;;17.50;1.00;;;;;;5023566;28;20449;-66
2022/12/31 10:15:21;;;;;;;2.05;0.88;;;17.50;1.00;;;;;;5058742;28;20187;-67
2022/12/31 10:18:16;;;;;;;2.90;1.15;;;17.60;1.00;;;;;;5058196;28;20218;-66
2022/12/31 10:21:05;;;;;;;1.90;0.90;;;17.70;1.00;;;;;;5060220;28;20195;-66
2022/12/31 10:23:34;;;;;;;3.50;1.20;;;17.80;1.00;;;;;;5058120;28;20191;-66
2022/12/31 10:26:23;;;;;;;1.08;0.80;;;17.70;1.00;;;;;;5057496;28;20229;-67
2022/12/31 10:29:01;;;;;;;1.75;0.90;;;17.70;1.00;;;;;;5058726;28;20211;-65
2022/12/31 10:31:38;;;;;;;3.30;0.98;;;17.70;1.00;;;;;;5054901;28;20298;-66
2022/12/31 10:34:13;;;;;;;2.63;0.82;;;17.70;1.00;;;;;;5056794;28;20199;-65
2022/12/31 10:36:53;;;;;;;2.15;1.10;;;17.70;1.00;;;;;;5054202;28;20191;-66
2022/12/31 10:39:48;;;;;;;2.00;1.05;;;17.70;1.00;;;;;;5038265;28;20198;-66
2022/12/31 10:42:24;;;;;;;3.78;1.10;;;17.70;1.00;;;;;;5055757;28;20249;-66
2022/12/31 10:45:10;;;;;;;1.38;1.00;;;17.70;1.00;;;;;;5056211;28;20190;-66
2022/12/31 10:48:11;;;;;;;2.85;0.98;;;17.70;1.00;;;;;;5052611;28;20958;-65
2022/12/31 10:51:03;;;;;;;1.85;1.25;;;17.70;1.00;;;;;;5037031;28;20667;-66
2022/12/31 10:53:42;;;;;;;5.60;1.50;;;17.80;1.00;;;;;;5054820;28;20179;-66
2022/12/31 10:56:35;;;;;;;3.95;2.03;;;17.80;1.00;;;;;;5039204;28;20199;-66
2022/12/31 10:59:08;;;;;;;1.85;1.10;;;17.80;1.00;;;;;;4996633;28;20683;-66
2022/12/31 11:01:53;;;;;;;5.43;1.55;;;17.90;1.00;;;;;;5037402;28;20242;-66
2022/12/31 11:04:56;;;;;;;2.65;1.30;;;18.00;1.00;;;;;;5038189;28;20238;-65
2022/12/31 11:07:23;;;;;;;4.25;1.48;;;18.10;1.00;;;;;;5036974;28;20666;-66
2022/12/31 11:10:09;;;;;;;4.05;1.10;;;18.20;1.00;;;;;;5057756;28;20221;-67
2022/12/31 11:13:14;;;;;;;4.85;1.00;;;18.40;1.00;;;;;;5039512;28;21114;-67
2022/12/31 11:16:13;;;;;;;2.38;1.30;;;18.50;1.00;;;;;;5037734;28;20672;-67
2022/12/31 11:19:01;;;;;;;3.45;1.38;;;18.40;1.00;;;;;;5056241;28;20201;-67
2022/12/31 11:21:49;;;;;;;2.83;1.42;;;18.50;1.00;;;;;;5021967;28;20685;-66
2022/12/31 11:24:42;;;;;;;3.03;1.80;;;18.40;1.00;;;;;;5038075;28;20626;-67
2022/12/31 11:27:34;;;;;;;2.88;1.33;;;18.40;1.00;;;;;;5019523;28;20773;-66
2022/12/31 11:30:13;;;;;;;3.92;1.55;;;18.50;1.00;;;;;;5034944;28;20194;-66
2022/12/31 11:32:49;;;;;;;3.75;1.05;;;18.50;1.00;;;;;;5037223;28;20234;-65
2022/12/31 11:35:34;;;;;;;3.63;1.33;;;19.00;1.00;;;;;;5038749;28;20198;-65
2022/12/31 11:38:14;;;;;;;3.35;1.10;;;19.60;1.00;;;;;;5027936;28;20783;-66
2022/12/31 11:40:52;;;;;;;2.33;1.02;;;19.40;1.00;;;;;;5034516;28;20750;-67
2022/12/31 11:43:46;;;;;;;4.03;1.20;;;20.00;1.00;;;;;;5053353;28;20717;-67
2022/12/31 11:46:28;;;;;;;2.35;1.00;;;20.50;1.00;;;;;;4995993;28;20296;-65
2022/12/31 11:49:43;;;;;;;2.20;1.05;;;19.90;1.00;;;;;;5021777;28;20609;-68
2022/12/31 11:52:32;;;;;;;2.72;0.80;;;19.70;1.00;;;;;;4980114;28;20250;-66
2022/12/31 11:55:10;;;;;;;3.88;1.08;;;19.10;1.00;;;;;;5007122;28;20695;-67
2022/12/31 11:57:40;;;;;;;2.00;1.00;;;18.90;1.00;;;;;;5056734;28;20203;-67
2022/12/31 12:00:19;;;;;;;2.97;1.02;;;18.80;1.00;;;;;;5020935;28;20298;-65
2022/12/31 12:02:49;;;;;;;3.28;1.00;;;18.60;1.00;;;;;;5049990;28;20245;-67
2022/12/31 12:05:19;;;;;;;2.00;1.15;;;18.40;1.00;;;;;;5019957;28;20279;-66
2022/12/31 12:07:47;;;;;;;4.00;1.30;;;18.40;1.00;;;;;;5052469;28;20234;-67
2022/12/31 12:10:25;;;;;;;4.50;1.33;;;18.20;1.00;;;;;;5051432;28;20219;-66
2022/12/31 12:13:21;;;;;;;2.45;1.45;;;18.20;1.00;;;;;;5023063;28;20208;-66
2022/12/31 12:16:00;;;;;;;2.58;1.13;;;18.20;1.00;;;;;;5029979;28;20233;-65
2022/12/31 12:18:41;;;;;;;2.53;1.13;;;18.30;1.00;;;;;;5050094;28;20196;-66
2022/12/31 12:21:15;;;;;;;3.10;1.00;;;18.30;1.00;;;;;;5052142;28;20198;-65
2022/12/31 12:24:02;;;;;;;3.38;1.20;;;18.20;1.00;;;;;;5052234;28;20286;-66
2022/12/31 12:26:40;;;;;;;2.45;1.13;;;18.10;1.00;;;;;;5052253;28;20212;-66
2022/12/31 12:29:11;;;;;;;2.33;1.20;;;18.10;1.00;;;;;;5032227;28;20206;-66
2022/12/31 12:31:52;;;;;;;4.35;1.30;;;18.00;1.00;;;;;;5051813;28;20191;-65
2022/12/31 12:34:23;;;;;;;3.63;1.33;;;18.10;1.00;;;;;;5033131;28;20187;-66
2022/12/31 12:36:50;;;;;;;2.63;1.05;;;18.00;1.00;;;;;;5051712;28;20253;-66
2022/12/31 12:39:27;;;;;;;3.03;1.77;;;18.00;1.00;;;;;;5032616;28;20211;-66
2022/12/31 12:42:09;;;;;;;3.03;1.23;;;18.00;1.00;;;;;;5051845;28;20232;-66
2022/12/31 12:44:37;;;;;;;4.97;1.30;;;18.00;1.00;;;;;;5022470;28;20426;-66
2022/12/31 12:47:13;;;;;;;4.45;1.30;;;18.00;1.00;;;;;;5034728;28;20424;-66
2022/12/31 12:49:45;;;;;;;5.15;1.30;;;18.00;1.00;;;;;;5051162;28;21069;-65
2022/12/31 12:52:23;;;;;;;3.53;1.17;;;17.90;1.00;;;;;;5035790;28;20215;-67
2022/12/31 12:55:16;;;;;;;3.40;1.55;;;17.80;1.00;;;;;;5036002;28;20306;-66
2022/12/31 12:58:01;;;;;;;3.08;1.10;;;17.60;1.00;;;;;;5020793;28;20198;-67
2022/12/31 13:00:50;;;;;;;2.50;1.20;;;17.50;1.00;;;;;;5055565;28;20288;-66
2022/12/31 13:03:55;;;;;;;5.10;1.40;;;17.50;1.00;;;;;;5053360;28;20216;-66
2022/12/31 13:07:19;;;;;;;4.50;1.30;;;17.60;1.00;;;;;;5050714;28;20364;-66
2022/12/31 13:09:58;;;;;;;4.22;1.52;;;17.60;1.00;;;;;;5050298;28;20581;-66
2022/12/31 13:12:46;;;;;;;4.10;1.80;;;17.50;1.00;;;;;;5031919;28;20489;-66
2022/12/31 13:16:00;;;;;;;1.25;0.90;;;17.40;1.00;;;;;;5026192;28;20595;-66
2022/12/31 13:18:40;;;;;;;3.03;1.30;;;17.20;1.00;;;;;;5004609;28;20286;-66
2022/12/31 13:21:27;;;;;;;4.10;1.42;;;17.20;1.00;;;;;;5052725;28;20253;-66
2022/12/31 13:24:14;;;;;;;2.03;1.00;;;17.10;1.00;;;;;;5052893;28;20643;-66
2022/12/31 13:26:51;;;;;;;4.40;1.48;;;17.10;1.00;;;;;;5056424;28;20210;-65
2022/12/31 13:29:22;;;;;;;5.25;3.17;;;17.10;1.00;;;;;;5038559;28;20725;-65
2022/12/31 13:31:51;;;;;;;5.20;2.15;;;17.00;1.00;;;;;;5038108;28;20194;-65
2022/12/31 13:34:23;;;;;;;3.95;2.10;;;16.90;1.00;;;;;;5023150;28;20763;-67
2022/12/31 13:36:53;;;;;;;6.28;2.88;;;16.80;1.00;;;;;;5050313;28;20191;-65
2022/12/31 13:39:25;;;;;;;18.27;9.65;;;16.70;1.00;;;;;;5023084;28;20202;-65
2022/12/31 13:42:06;;;;;;;8.35;2.45;;;16.70;1.00;;;;;;5055476;28;20241;-65
2022/12/31 13:44:57;;;;;;;5.78;2.72;;;16.70;1.00;;;;;;5052209;28;20306;-65
2022/12/31 13:47:48;;;;;;;8.07;3.72;;;16.60;1.00;;;;;;5056619;28;20517;-65
2022/12/31 13:50:35;;;;;;;8.85;4.13;;;16.60;1.00;;;;;;5056459;28;20278;-65
2022/12/31 13:53:32;;;;;;;4.40;1.88;;;16.60;1.00;;;;;;5052410;28;20219;-67
2022/12/31 13:56:08;;;;;;;3.30;2.33;;;16.70;1.00;;;;;;5051757;28;20241;-70